Time;durP1;ratioP1;P1;durP2;ratioP2;P2;SDS_P1;SDS_P2;PMS_P1;PMS_P2;Temp;Humidity;BMP_temperature;BMP_pressure;BME280_temperature;BME280_humidity;BME280_pressure;Samples;Min_cycle;Max_cycle;Signal;HPM_P1;HPM_P2
2022/06/21 00:01:52;;;;;;;5.90;3.42;;;12.80;99.90;;;;;;5024190;28;20073;-78
2022/06/21 00:04:19;;;;;;;4.53;3.65;;;12.80;99.90;;;;;;5030582;28;20119;-79
2022/06/21 00:06:47;;;;;;;3.70;3.40;;;12.80;99.90;;;;;;5031952;28;20104;-78
2022/06/21 00:09:14;;;;;;;4.90;4.50;;;12.80;99.90;;;;;;5021850;28;20133;-78
2022/06/21 00:11:43;;;;;;;4.15;3.53;;;12.90;99.90;;;;;;5023941;28;20095;-78
2022/06/21 00:14:10;;;;;;;4.20;3.67;;;12.90;99.90;;;;;;5009101;28;20056;-78
2022/06/21 00:16:38;;;;;;;3.60;3.30;;;12.90;99.90;;;;;;4994285;28;20082;-78
2022/06/21 00:19:07;;;;;;;4.30;3.60;;;12.90;99.90;;;;;;5014100;28;21109;-78
2022/06/21 00:21:38;;;;;;;4.10;3.40;;;12.90;99.90;;;;;;5030948;28;20402;-78
2022/06/21 00:24:06;;;;;;;2.83;2.63;;;12.90;99.90;;;;;;5028977;28;20057;-78
2022/06/21 00:26:33;;;;;;;3.75;3.40;;;12.90;99.90;;;;;;5022642;28;20049;-78
2022/06/21 00:29:02;;;;;;;3.03;2.70;;;12.90;99.90;;;;;;5001154;28;20045;-78
2022/06/21 00:31:33;;;;;;;3.35;2.67;;;12.80;99.90;;;;;;5016523;28;20053;-79
2022/06/21 00:34:08;;;;;;;2.60;2.40;;;12.80;99.90;;;;;;4993303;28;20526;-78
2022/06/21 00:36:38;;;;;;;3.83;2.60;;;12.80;99.90;;;;;;4994443;28;20414;-78
2022/06/21 00:39:06;;;;;;;3.58;2.83;;;12.80;99.90;;;;;;5019055;28;20494;-78
2022/06/21 00:41:40;;;;;;;4.72;2.63;;;12.80;99.90;;;;;;4979790;28;20073;-79
2022/06/21 00:44:13;;;;;;;2.47;2.30;;;12.80;99.90;;;;;;5025591;28;20401;-79
2022/06/21 00:46:46;;;;;;;5.93;2.90;;;12.80;99.90;;;;;;4993514;28;20049;-78
2022/06/21 00:49:18;;;;;;;2.70;2.50;;;12.70;99.90;;;;;;5013729;28;20048;-79
2022/06/21 00:51:45;;;;;;;3.47;3.10;;;12.70;99.90;;;;;;5012277;28;20053;-79
2022/06/21 00:54:19;;;;;;;3.25;3.05;;;12.60;99.90;;;;;;5016572;28;20048;-79
2022/06/21 00:56:52;;;;;;;3.03;2.83;;;12.60;99.90;;;;;;5020951;28;20045;-78
2022/06/21 00:59:25;;;;;;;3.33;2.80;;;12.50;99.90;;;;;;5030868;28;20065;-78
2022/06/21 01:01:57;;;;;;;3.10;2.90;;;12.50;99.90;;;;;;5012461;28;20514;-78
2022/06/21 01:04:31;;;;;;;3.50;3.05;;;12.50;99.90;;;;;;5030819;28;20049;-78
2022/06/21 01:07:01;;;;;;;3.17;2.92;;;12.50;99.90;;;;;;5022854;28;20076;-78
2022/06/21 01:09:36;;;;;;;3.35;3.05;;;12.50;99.90;;;;;;5012275;28;20055;-78
2022/06/21 01:12:10;;;;;;;3.30;3.00;;;12.50;99.90;;;;;;5030908;28;20041;-77
2022/06/21 01:14:42;;;;;;;3.75;3.22;;;12.50;99.90;;;;;;5004027;28;20060;-77
2022/06/21 01:17:12;;;;;;;3.45;3.15;;;12.50;99.90;;;;;;5031245;28;20053;-77
2022/06/21 01:19:42;;;;;;;3.03;2.83;;;12.50;99.90;;;;;;5012468;28;20077;-77
2022/06/21 01:22:23;;;;;;;3.90;3.42;;;12.50;99.90;;;;;;5013008;28;20383;-77
2022/06/21 01:25:03;;;;;;;3.50;3.20;;;12.60;99.90;;;;;;5022632;28;20500;-77
2022/06/21 01:27:32;;;;;;;3.75;3.05;;;12.50;99.90;;;;;;5012722;28;20046;-77
2022/06/21 01:30:00;;;;;;;4.10;3.63;;;12.50;99.90;;;;;;5029574;28;20108;-77
2022/06/21 01:32:28;;;;;;;4.18;3.08;;;12.50;99.90;;;;;;5026346;28;20045;-78
2022/06/21 01:34:55;;;;;;;3.92;3.38;;;12.50;99.90;;;;;;5014578;28;20072;-77
2022/06/21 01:37:28;;;;;;;4.40;3.40;;;12.60;99.90;;;;;;4991800;28;20658;-78
2022/06/21 01:40:01;;;;;;;3.83;3.53;;;12.60;99.90;;;;;;5010403;28;20056;-77
2022/06/21 01:42:36;;;;;;;4.45;4.05;;;12.60;99.90;;;;;;5008783;28;20045;-77
2022/06/21 01:45:07;;;;;;;3.38;3.08;;;12.60;99.90;;;;;;5028710;28;20111;-78
2022/06/21 01:47:43;;;;;;;3.60;3.40;;;12.60;99.90;;;;;;5011231;28;20045;-77
2022/06/21 01:50:11;;;;;;;3.40;3.10;;;12.60;99.90;;;;;;5012166;28;20407;-79
2022/06/21 01:52:43;;;;;;;3.80;3.38;;;12.60;99.90;;;;;;5020800;28;20132;-78
2022/06/21 01:55:14;;;;;;;3.78;3.47;;;12.60;99.90;;;;;;5028921;28;20442;-78
2022/06/21 01:57:43;;;;;;;3.83;3.53;;;12.70;99.90;;;;;;5016390;28;20414;-78
2022/06/21 02:00:11;;;;;;;4.75;4.05;;;12.70;99.90;;;;;;5011267;28;20121;-78
2022/06/21 02:02:43;;;;;;;4.00;3.42;;;12.70;99.90;;;;;;5023265;28;20047;-78
2022/06/21 02:05:15;;;;;;;4.70;3.97;;;12.70;99.90;;;;;;5006928;28;20065;-78
2022/06/21 02:07:48;;;;;;;4.53;4.23;;;12.70;99.90;;;;;;4992725;28;20149;-78
2022/06/21 02:10:23;;;;;;;5.13;3.83;;;12.80;99.90;;;;;;5006603;28;20042;-78
2022/06/21 02:12:54;;;;;;;4.45;4.10;;;12.80;99.90;;;;;;4995524;28;20049;-78
2022/06/21 02:15:46;;;;;;;4.07;3.78;;;12.80;99.90;;;;;;5013654;28;20096;-78
2022/06/21 02:18:16;;;;;;;5.13;3.67;;;12.90;99.90;;;;;;4980910;28;20045;-78
2022/06/21 02:20:47;;;;;;;3.70;3.40;;;12.90;99.90;;;;;;5020716;28;20402;-78
2022/06/21 02:23:18;;;;;;;2.75;2.55;;;12.90;99.90;;;;;;4998996;28;20495;-77
2022/06/21 02:25:46;;;;;;;3.63;3.33;;;13.00;99.90;;;;;;5006024;28;20053;-78
2022/06/21 02:28:17;;;;;;;4.40;4.10;;;13.00;99.90;;;;;;5012232;28;20045;-78
2022/06/21 02:30:46;;;;;;;5.07;4.68;;;13.00;99.90;;;;;;5011649;28;20057;-78
2022/06/21 02:33:17;;;;;;;6.30;5.80;;;13.00;99.90;;;;;;5033938;28;20452;-78
2022/06/21 02:35:49;;;;;;;7.82;7.10;;;13.00;99.90;;;;;;5016106;28;20052;-78
2022/06/21 02:38:23;;;;;;;9.65;8.73;;;13.10;99.90;;;;;;5019814;28;20054;-78
2022/06/21 02:40:56;;;;;;;9.00;8.20;;;13.00;99.90;;;;;;5005438;28;20061;-77
2022/06/21 02:43:31;;;;;;;9.93;8.93;;;13.00;99.90;;;;;;5013764;28;20442;-77
2022/06/21 02:46:02;;;;;;;8.15;7.35;;;13.00;99.90;;;;;;5010430;28;20407;-77
2022/06/21 02:48:36;;;;;;;6.97;6.30;;;13.00;99.90;;;;;;5003558;28;20049;-77
2022/06/21 02:51:08;;;;;;;6.47;5.88;;;13.00;99.90;;;;;;5032710;28;20053;-78
2022/06/21 02:53:40;;;;;;;5.25;4.82;;;13.10;99.90;;;;;;5033512;28;20053;-78
2022/06/21 02:56:11;;;;;;;4.13;3.83;;;13.00;99.90;;;;;;5012399;28;20056;-78
2022/06/21 02:58:43;;;;;;;5.30;3.85;;;13.10;99.90;;;;;;5029669;28;20506;-78
2022/06/21 03:01:18;;;;;;;4.43;4.03;;;13.10;99.90;;;;;;5016720;28;20373;-78
2022/06/21 03:03:46;;;;;;;4.10;3.80;;;13.10;99.90;;;;;;5013156;28;20141;-78
2022/06/21 03:06:17;;;;;;;4.15;3.45;;;13.20;99.90;;;;;;4995752;28;20045;-77
2022/06/21 03:08:50;;;;;;;3.30;3.08;;;13.20;99.90;;;;;;5030584;28;20045;-77
2022/06/21 03:11:21;;;;;;;3.53;3.22;;;13.30;99.90;;;;;;5013943;28;20127;-78
2022/06/21 03:13:52;;;;;;;5.28;3.20;;;13.30;99.90;;;;;;5031483;28;20076;-79
2022/06/21 03:16:20;;;;;;;3.00;2.80;;;13.40;99.90;;;;;;5022132;28;20049;-77
2022/06/21 03:18:52;;;;;;;2.80;2.60;;;13.50;99.90;;;;;;5032047;28;20073;-77
2022/06/21 03:21:26;;;;;;;6.68;2.70;;;13.60;99.90;;;;;;5031222;28;20514;-78
2022/06/21 03:23:53;;;;;;;2.90;2.70;;;13.60;99.90;;;;;;5008972;28;20493;-77
2022/06/21 03:26:21;;;;;;;3.78;2.35;;;13.70;99.90;;;;;;5028515;28;20093;-77
2022/06/21 03:28:48;;;;;;;4.57;3.17;;;13.80;99.90;;;;;;5030768;28;20095;-77
2022/06/21 03:31:24;;;;;;;4.10;3.35;;;13.80;99.90;;;;;;5032121;28;20041;-78
2022/06/21 03:33:54;;;;;;;4.40;2.80;;;13.80;99.90;;;;;;5022824;28;20050;-78
2022/06/21 03:36:24;;;;;;;4.60;3.13;;;13.80;99.90;;;;;;5014669;28;20068;-78
2022/06/21 03:38:55;;;;;;;3.53;3.17;;;13.80;99.90;;;;;;5029687;28;20117;-78
2022/06/21 03:44:14;;;;;;;3.30;2.50;;;13.80;99.90;;;;;;5014270;28;20124;-78
2022/06/21 03:46:49;;;;;;;3.00;2.80;;;13.90;99.90;;;;;;4994420;28;20087;-78
2022/06/21 03:49:25;;;;;;;3.40;2.90;;;13.80;99.90;;;;;;4992647;28;20136;-78
2022/06/21 03:51:55;;;;;;;3.42;2.75;;;13.80;99.90;;;;;;4995644;28;20050;-77
2022/06/21 03:54:29;;;;;;;2.70;2.50;;;13.90;99.90;;;;;;5018868;28;20065;-77
2022/06/21 03:57:03;;;;;;;4.88;2.65;;;14.00;99.90;;;;;;4993472;28;20427;-77
2022/06/21 03:59:36;;;;;;;3.45;3.10;;;14.10;99.90;;;;;;5012184;28;20149;-77
2022/06/21 04:02:13;;;;;;;2.92;2.65;;;14.20;99.90;;;;;;5013345;28;20516;-78
2022/06/21 04:04:47;;;;;;;3.03;2.60;;;14.30;99.90;;;;;;5030683;28;20062;-80
2022/06/21 04:07:19;;;;;;;3.08;2.50;;;14.40;99.90;;;;;;5031641;28;20084;-79
2022/06/21 04:09:52;;;;;;;8.95;3.78;;;14.50;99.90;;;;;;5031830;28;20057;-79
2022/06/21 04:12:26;;;;;;;2.83;2.55;;;14.60;99.90;;;;;;5009584;28;20046;-78
2022/06/21 04:14:59;;;;;;;6.32;3.30;;;14.60;99.90;;;;;;5020034;28;20065;-78
2022/06/21 04:17:31;;;;;;;;;;;14.70;99.90;;;;;;5029800;28;20510;-78
2022/06/21 04:20:02;;;;;;;6.63;3.15;;;14.70;99.90;;;;;;4996913;28;19937;-79
2022/06/21 04:22:37;;;;;;;3.78;2.85;;;14.60;99.90;;;;;;4974787;28;20046;-76
2022/06/21 04:25:15;;;;;;;3.65;2.40;;;14.60;99.90;;;;;;4991622;28;20515;-78
2022/06/21 04:27:48;;;;;;;2.80;2.08;;;14.60;99.90;;;;;;4974287;28;20054;-77
2022/06/21 04:30:22;;;;;;;3.08;2.78;;;14.50;99.90;;;;;;4994797;28;20057;-77
2022/06/21 04:32:55;;;;;;;2.50;2.30;;;14.50;99.90;;;;;;5013104;28;20057;-77
2022/06/21 04:35:26;;;;;;;3.38;2.60;;;14.60;99.90;;;;;;5027530;28;20057;-78
2022/06/21 04:38:00;;;;;;;3.20;2.20;;;14.60;99.90;;;;;;5011781;28;20045;-78
2022/06/21 04:40:34;;;;;;;2.60;2.40;;;14.60;99.90;;;;;;5021665;28;20144;-78
2022/06/21 04:43:07;;;;;;;3.58;2.35;;;14.60;99.90;;;;;;5011421;28;20037;-78
2022/06/21 04:45:40;;;;;;;2.47;2.28;;;14.70;99.90;;;;;;5030979;28;20049;-77
2022/06/21 04:48:23;;;;;;;2.58;1.85;;;14.70;99.90;;;;;;5003967;28;20042;-78
2022/06/21 04:50:57;;;;;;;4.18;2.33;;;14.90;99.90;;;;;;5011454;28;20053;-78
2022/06/21 04:53:32;;;;;;;2.55;2.10;;;15.00;99.90;;;;;;5019226;28;20091;-78
2022/06/21 04:56:08;;;;;;;4.90;2.53;;;15.10;99.90;;;;;;4993350;28;20137;-78
2022/06/21 04:58:37;;;;;;;4.63;2.65;;;15.20;99.90;;;;;;5021234;28;20084;-78
2022/06/21 05:01:29;;;;;;;3.10;2.80;;;15.30;99.90;;;;;;4996522;28;20513;-78
2022/06/21 05:03:57;;;;;;;8.05;2.90;;;15.40;99.90;;;;;;5012842;28;20056;-78
2022/06/21 05:06:26;;;;;;;3.90;1.90;;;15.40;99.90;;;;;;5021418;28;20058;-78
2022/06/21 05:08:54;;;;;;;3.80;1.98;;;15.40;99.90;;;;;;4990675;28;20085;-78
2022/06/21 05:11:23;;;;;;;3.78;2.20;;;15.30;99.90;;;;;;4989486;28;20058;-77
2022/06/21 05:13:54;;;;;;;2.33;2.13;;;15.20;99.90;;;;;;4989541;28;20046;-77
2022/06/21 05:16:26;;;;;;;3.70;2.40;;;15.20;99.90;;;;;;5006950;28;20049;-78
2022/06/21 05:18:59;;;;;;;4.07;2.45;;;15.10;99.90;;;;;;5030387;28;20057;-77
2022/06/21 05:21:30;;;;;;;;;;;15.10;99.90;;;;;;5011562;28;20072;-79
2022/06/21 05:23:57;;;;;;;3.17;2.60;;;15.10;99.90;;;;;;5002420;28;19971;-78
2022/06/21 05:26:32;;;;;;;4.78;2.78;;;15.20;99.90;;;;;;5016800;28;20049;-81
2022/06/21 05:29:06;;;;;;;2.03;1.73;;;15.20;99.90;;;;;;5009115;28;20049;-80
2022/06/21 05:31:51;;;;;;;1.95;1.60;;;15.30;99.90;;;;;;4997887;28;20050;-80
2022/06/21 05:34:24;;;;;;;2.60;2.20;;;15.40;99.90;;;;;;5006749;28;20042;-81
2022/06/21 05:36:58;;;;;;;2.22;1.45;;;15.50;99.90;;;;;;5010795;28;20372;-81
2022/06/21 05:39:31;;;;;;;8.25;4.18;;;15.70;99.90;;;;;;5010112;28;20054;-81
2022/06/21 05:42:02;;;;;;;2.80;1.75;;;15.80;99.90;;;;;;5011031;28;20041;-80
2022/06/21 05:44:34;;;;;;;4.05;2.28;;;15.90;99.90;;;;;;5003023;28;20418;-78
2022/06/21 05:47:07;;;;;;;1.77;1.67;;;16.30;99.90;;;;;;5007729;28;20085;-78
2022/06/21 05:49:38;;;;;;;2.53;1.55;;;16.60;99.90;;;;;;5019041;28;20061;-79
2022/06/21 05:52:13;;;;;;;3.58;2.00;;;16.90;99.90;;;;;;5009652;28;20054;-80
2022/06/21 05:54:46;;;;;;;1.23;1.20;;;17.30;99.90;;;;;;4991225;28;20494;-81
2022/06/21 05:57:19;;;;;;;2.85;2.40;;;17.80;99.90;;;;;;5014129;28;20080;-81
2022/06/21 05:59:47;;;;;;;1.80;1.70;;;17.90;99.90;;;;;;4991186;28;20073;-82
2022/06/21 06:02:23;;;;;;;2.13;1.92;;;17.90;99.90;;;;;;5012682;28;20042;-80
2022/06/21 06:04:57;;;;;;;2.45;1.40;;;18.10;99.90;;;;;;5032961;28;20050;-82
2022/06/21 06:07:30;;;;;;;1.52;1.42;;;18.20;99.90;;;;;;5008176;28;20144;-82
2022/06/21 06:10:00;;;;;;;5.53;2.47;;;18.40;99.90;;;;;;5004042;28;20069;-80
2022/06/21 06:12:35;;;;;;;6.88;3.38;;;18.50;99.90;;;;;;4991973;28;20046;-79
2022/06/21 06:15:06;;;;;;;3.97;1.65;;;18.40;99.90;;;;;;5009934;28;20057;-80
2022/06/21 06:17:41;;;;;;;2.30;1.42;;;18.50;99.90;;;;;;4992059;28;20737;-79
2022/06/21 06:20:18;;;;;;;2.10;1.52;;;18.60;99.90;;;;;;5009610;28;20164;-78
2022/06/21 06:22:50;;;;;;;1.73;1.42;;;19.00;99.90;;;;;;5005044;28;20565;-78
2022/06/21 06:25:21;;;;;;;1.67;1.52;;;19.40;99.90;;;;;;5001678;28;20184;-79
2022/06/21 06:27:56;;;;;;;2.75;1.27;;;19.60;99.90;;;;;;5009010;28;20057;-78
2022/06/21 06:30:30;;;;;;;2.08;1.60;;;19.60;99.90;;;;;;5016173;28;20050;-78
2022/06/21 06:33:04;;;;;;;3.22;2.33;;;19.70;99.90;;;;;;5020348;28;20058;-77
2022/06/21 06:35:34;;;;;;;2.17;1.27;;;20.40;99.90;;;;;;5012458;28;20444;-77
2022/06/21 06:38:01;;;;;;;2.90;2.20;;;20.90;99.90;;;;;;5024543;28;20073;-78
2022/06/21 06:40:35;;;;;;;2.45;1.27;;;21.00;99.90;;;;;;5020821;28;20065;-78
2022/06/21 06:43:06;;;;;;;1.58;1.48;;;21.60;99.90;;;;;;5030096;28;20123;-78
2022/06/21 06:45:37;;;;;;;1.13;1.13;;;22.50;99.90;;;;;;4993709;28;20074;-78
2022/06/21 06:48:13;;;;;;;1.50;1.40;;;23.30;99.90;;;;;;5005753;28;20165;-79
2022/06/21 06:50:46;;;;;;;2.17;1.23;;;23.70;99.90;;;;;;5028207;28;20116;-79
2022/06/21 06:53:19;;;;;;;2.20;1.60;;;23.90;99.90;;;;;;4997128;28;20136;-78
2022/06/21 06:55:51;;;;;;;1.45;1.17;;;24.40;99.80;;;;;;5002709;28;20045;-77
2022/06/21 06:58:24;;;;;;;2.13;1.60;;;24.80;93.60;;;;;;5012491;28;20410;-77
2022/06/21 07:00:57;;;;;;;3.20;1.10;;;24.10;92.40;;;;;;4998371;28;20073;-76
2022/06/21 07:03:28;;;;;;;1.10;1.00;;;24.10;94.40;;;;;;4999378;28;20502;-78
2022/06/21 07:06:02;;;;;;;1.25;0.80;;;24.40;90.80;;;;;;5017920;28;20141;-79
2022/06/21 07:08:37;;;;;;;0.85;0.85;;;24.80;89.40;;;;;;5012684;28;20426;-76
2022/06/21 07:11:13;;;;;;;4.22;1.02;;;25.30;84.80;;;;;;4994305;28;20549;-76
2022/06/21 07:13:42;;;;;;;1.10;1.10;;;25.70;82.40;;;;;;5011737;28;20181;-78
2022/06/21 07:16:15;;;;;;;1.17;0.90;;;26.10;79.80;;;;;;5022006;28;20053;-75
2022/06/21 07:18:47;;;;;;;1.30;1.20;;;26.40;75.10;;;;;;5012413;28;20049;-76
2022/06/21 07:21:17;;;;;;;1.80;1.00;;;25.70;72.20;;;;;;5012852;28;20046;-76
2022/06/21 07:23:45;;;;;;;3.90;2.00;;;24.90;77.10;;;;;;5015208;28;20085;-77
2022/06/21 07:26:18;;;;;;;0.98;0.90;;;24.40;81.70;;;;;;5028417;28;20049;-76
2022/06/21 07:28:48;;;;;;;;;;;24.00;82.10;;;;;;5013123;28;20065;-77
2022/06/21 07:31:19;;;;;;;1.40;1.05;;;23.40;83.60;;;;;;5012599;28;19925;-77
2022/06/21 07:33:51;;;;;;;1.30;1.08;;;22.70;88.20;;;;;;5012203;28;20057;-76
2022/06/21 07:36:25;;;;;;;1.00;1.00;;;22.30;91.90;;;;;;4994798;28;20065;-76
2022/06/21 07:38:57;;;;;;;4.00;0.80;;;22.70;91.40;;;;;;5010061;28;20041;-78
2022/06/21 07:41:30;;;;;;;0.80;0.80;;;23.30;89.60;;;;;;5032410;28;20457;-77
2022/06/21 07:44:03;;;;;;;0.90;0.75;;;23.90;85.70;;;;;;5022310;28;20506;-77
2022/06/21 07:46:35;;;;;;;4.82;1.10;;;24.60;80.80;;;;;;4994593;28;20056;-78
2022/06/21 07:49:11;;;;;;;2.90;0.90;;;25.00;78.60;;;;;;5012101;28;20057;-78
2022/06/21 07:51:46;;;;;;;1.60;0.90;;;24.50;76.50;;;;;;5012182;28;20057;-77
2022/06/21 07:54:18;;;;;;;1.00;0.90;;;23.70;77.20;;;;;;5011222;28;20544;-77
2022/06/21 07:56:49;;;;;;;3.92;1.15;;;23.10;79.80;;;;;;4969339;28;20058;-79
2022/06/21 07:59:19;;;;;;;1.88;0.80;;;23.40;80.00;;;;;;5012734;28;20145;-78
2022/06/21 08:07:32;;;;;;;3.05;0.85;;;25.20;72.80;;;;;;5011678;28;20058;-76
2022/06/21 08:10:06;;;;;;;1.55;1.08;;;24.40;69.70;;;;;;5011883;28;20050;-77
2022/06/21 08:12:33;;;;;;;1.02;0.90;;;24.40;71.50;;;;;;5013639;28;20073;-73
2022/06/21 08:15:02;;;;;;;3.03;1.35;;;23.90;73.40;;;;;;5010765;28;20442;-75
2022/06/21 08:17:38;;;;;;;1.13;0.90;;;23.90;73.50;;;;;;5004584;28;20076;-77
2022/06/21 08:20:12;;;;;;;4.68;1.02;;;23.60;76.00;;;;;;5016710;28;20593;-76
2022/06/21 08:22:46;;;;;;;4.00;0.90;;;24.30;76.90;;;;;;4993882;28;20046;-75
2022/06/21 08:25:23;;;;;;;2.53;1.00;;;25.50;71.00;;;;;;4993613;28;20095;-77
2022/06/21 08:27:55;;;;;;;2.58;1.05;;;26.40;69.20;;;;;;5011274;28;20147;-74
2022/06/21 08:30:31;;;;;;;1.98;0.98;;;27.20;64.40;;;;;;5010223;28;20534;-75
2022/06/21 08:33:06;;;;;;;1.35;1.23;;;28.00;59.80;;;;;;5024693;28;20057;-77
2022/06/21 08:35:36;;;;;;;1.52;1.00;;;28.70;59.60;;;;;;5004919;28;20053;-77
2022/06/21 08:38:12;;;;;;;2.03;1.40;;;29.40;57.30;;;;;;5019379;28;20462;-76
2022/06/21 08:44:23;;;;;;;2.15;1.48;;;29.10;54.80;;;;;;4992139;28;20049;-75
2022/06/21 08:47:35;;;;;;;1.00;1.00;;;29.10;54.60;;;;;;4991938;28;20526;-76
2022/06/21 08:50:32;;;;;;;2.10;1.40;;;29.20;55.00;;;;;;4984984;28;20057;-77
2022/06/21 08:53:12;;;;;;;1.27;1.20;;;29.60;54.70;;;;;;5018558;28;20475;-75
2022/06/21 08:55:50;;;;;;;1.65;1.55;;;29.70;53.50;;;;;;5011302;28;20450;-75
2022/06/21 08:58:29;;;;;;;3.45;1.35;;;29.20;50.70;;;;;;5010865;28;20053;-77
2022/06/21 09:01:05;;;;;;;3.40;1.10;;;29.20;53.10;;;;;;5029181;28;20053;-78
2022/06/21 09:03:54;;;;;;;2.15;1.02;;;29.60;52.90;;;;;;5030654;28;20052;-77
2022/06/21 09:06:38;;;;;;;1.45;1.20;;;29.80;52.40;;;;;;5028554;28;20176;-75
2022/06/21 09:09:38;;;;;;;1.48;1.38;;;30.10;52.50;;;;;;5030669;28;20061;-77
2022/06/21 09:12:18;;;;;;;1.58;1.27;;;28.80;53.80;;;;;;5025782;28;20513;-78
2022/06/21 09:15:06;;;;;;;1.30;1.30;;;28.40;53.20;;;;;;5009534;28;20057;-76
2022/06/21 09:17:46;;;;;;;2.42;1.27;;;29.00;54.30;;;;;;5010933;28;20042;-76
2022/06/21 09:20:26;;;;;;;6.32;1.23;;;30.00;51.90;;;;;;4992610;28;20137;-74
2022/06/21 09:23:05;;;;;;;1.42;1.00;;;30.90;49.50;;;;;;5016860;28;20099;-74
2022/06/21 09:25:45;;;;;;;1.17;1.17;;;31.50;48.20;;;;;;5017835;28;20124;-75
2022/06/21 09:28:25;;;;;;;2.95;1.75;;;32.00;49.20;;;;;;5008171;28;20053;-74
2022/06/21 09:30:58;;;;;;;2.13;0.98;;;32.30;48.00;;;;;;4994806;28;20502;-74
2022/06/21 09:33:37;;;;;;;5.53;1.20;;;32.50;46.80;;;;;;5011522;28;20049;-75
2022/06/21 09:36:11;;;;;;;1.13;1.02;;;32.80;46.60;;;;;;5010558;28;20413;-76
2022/06/21 09:38:50;;;;;;;1.95;1.00;;;33.10;45.90;;;;;;4977449;28;20049;-77
2022/06/21 09:41:24;;;;;;;1.30;1.20;;;33.30;45.30;;;;;;5013984;28;20617;-74
2022/06/21 09:44:03;;;;;;;1.20;1.20;;;33.30;44.30;;;;;;5030132;28;20057;-76
2022/06/21 09:46:46;;;;;;;1.75;1.13;;;33.10;43.90;;;;;;5030637;28;20140;-76
2022/06/21 09:49:29;;;;;;;2.20;1.10;;;32.90;44.80;;;;;;5004463;28;20061;-77
2022/06/21 09:52:05;;;;;;;2.58;1.30;;;32.80;45.80;;;;;;5023326;28;20061;-76
2022/06/21 09:54:35;;;;;;;1.77;1.08;;;32.40;45.80;;;;;;4990964;28;20043;-76
2022/06/21 09:57:15;;;;;;;3.58;1.60;;;31.80;46.30;;;;;;5011136;28;20053;-76
2022/06/21 09:59:50;;;;;;;1.05;0.93;;;30.60;48.20;;;;;;5018062;28;20069;-76
2022/06/21 10:02:24;;;;;;;3.42;1.50;;;30.90;49.30;;;;;;5010567;28;20136;-77
2022/06/21 10:05:04;;;;;;;1.85;1.10;;;31.90;46.50;;;;;;4991345;28;20524;-75
2022/06/21 10:07:48;;;;;;;1.08;0.98;;;32.90;46.70;;;;;;5005107;28;20049;-75
2022/06/21 10:10:31;;;;;;;0.93;0.93;;;33.40;43.90;;;;;;5021524;28;20072;-75
2022/06/21 10:13:14;;;;;;;1.30;1.20;;;33.80;44.00;;;;;;5029089;28;20045;-76
2022/06/21 10:15:49;;;;;;;1.50;1.40;;;34.10;44.90;;;;;;5028842;28;20049;-76
2022/06/21 10:18:54;;;;;;;1.00;1.00;;;34.30;44.10;;;;;;4996920;28;20557;-76
2022/06/21 10:21:55;;;;;;;0.90;0.90;;;34.40;43.50;;;;;;4992118;28;20065;-74
2022/06/21 10:25:01;;;;;;;2.40;1.97;;;34.00;44.30;;;;;;5008077;28;20549;-75
2022/06/21 10:27:58;;;;;;;0.85;0.85;;;32.30;45.10;;;;;;5005548;28;20398;-75
2022/06/21 10:30:48;;;;;;;2.80;1.30;;;31.00;47.10;;;;;;5011547;28;20065;-76
2022/06/21 10:33:35;;;;;;;3.85;1.42;;;30.30;47.80;;;;;;5014805;28;20041;-75
2022/06/21 10:36:18;;;;;;;2.50;1.48;;;29.70;47.10;;;;;;5012486;28;20053;-75
2022/06/21 10:39:02;;;;;;;1.52;0.90;;;28.90;49.40;;;;;;5010453;28;20459;-74
2022/06/21 10:42:46;;;;;;;1.67;1.58;;;29.30;49.40;;;;;;5023479;28;20054;-74
2022/06/21 10:44:47;;;;;;;4.35;2.90;;;28.80;48.70;;;;;;4995206;28;20046;-74
2022/06/21 10:47:28;;;;;;;1.10;1.00;;;29.00;49.80;;;;;;5012702;28;20045;-74
2022/06/21 10:50:21;;;;;;;2.40;1.70;;;30.40;47.70;;;;;;5007343;28;20042;-75
2022/06/21 10:53:19;;;;;;;2.40;1.10;;;30.60;46.00;;;;;;4997921;28;20053;-74
2022/06/21 10:58:52;;;;;;;0.90;0.80;;;31.70;45.80;;;;;;5003921;28;20049;-75
2022/06/21 11:01:27;;;;;;;0.88;0.88;;;32.90;44.00;;;;;;5013194;28;20054;-74
2022/06/21 11:04:29;;;;;;;1.40;1.00;;;33.20;42.50;;;;;;5010240;28;20049;-73
2022/06/21 11:07:06;;;;;;;2.08;1.08;;;31.50;43.30;;;;;;4993799;28;20517;-74
2022/06/21 11:09:40;;;;;;;0.90;0.90;;;30.50;46.20;;;;;;4990588;28;20062;-73
2022/06/21 11:15:06;;;;;;;2.60;1.05;;;31.90;45.80;;;;;;4986937;28;20045;-74
2022/06/21 11:17:42;;;;;;;2.22;1.02;;;33.10;43.10;;;;;;5016035;28;20092;-75
2022/06/21 11:20:24;;;;;;;4.28;1.20;;;33.90;41.40;;;;;;5012597;28;20086;-75
2022/06/21 11:23:02;;;;;;;2.08;1.27;;;34.30;40.20;;;;;;5003081;28;20140;-75
2022/06/21 11:25:38;;;;;;;1.15;1.15;;;34.70;39.60;;;;;;5005040;28;20041;-77
2022/06/21 11:28:19;;;;;;;2.13;1.90;;;34.60;40.70;;;;;;5012539;28;20060;-77
2022/06/21 11:30:53;;;;;;;1.70;1.50;;;35.00;40.10;;;;;;5011325;28;20050;-77
2022/06/21 11:33:49;;;;;;;1.90;1.80;;;35.20;38.80;;;;;;5015215;28;20565;-77
2022/06/21 11:36:25;;;;;;;2.55;1.70;;;34.50;40.30;;;;;;5023444;28;20045;-76
2022/06/21 11:39:07;;;;;;;1.80;1.70;;;34.30;40.40;;;;;;5006954;28;20576;-77
2022/06/21 11:42:06;;;;;;;2.50;1.63;;;34.70;40.60;;;;;;5009736;28;20099;-77
2022/06/21 11:45:06;;;;;;;1.90;1.40;;;35.30;39.60;;;;;;5012058;28;20140;-76
2022/06/21 11:47:55;;;;;;;2.33;1.50;;;36.00;40.10;;;;;;4999825;28;20077;-77
2022/06/21 11:50:28;;;;;;;3.08;1.60;;;36.20;37.80;;;;;;5006412;28;20058;-75
2022/06/21 11:53:08;;;;;;;;;;;36.40;37.40;;;;;;5015653;28;20041;-74
2022/06/21 11:55:44;;;;;;;3.78;1.80;;;35.40;38.60;;;;;;5013261;28;19929;-74
2022/06/21 11:58:25;;;;;;;2.08;1.98;;;35.00;40.10;;;;;;5007380;28;20106;-77
2022/06/21 12:01:01;;;;;;;2.47;1.98;;;35.40;38.70;;;;;;5001613;28;20052;-75
2022/06/21 12:03:44;;;;;;;2.85;2.65;;;36.10;38.10;;;;;;5001968;28;20703;-75
2022/06/21 12:06:29;;;;;;;1.90;1.80;;;36.40;37.80;;;;;;4996975;28;20052;-75
2022/06/21 12:09:07;;;;;;;2.13;2.03;;;36.60;37.00;;;;;;4954255;28;20976;-74
2022/06/21 12:11:48;;;;;;;1.95;1.73;;;36.80;38.30;;;;;;4997583;28;20070;-75
2022/06/21 12:14:34;;;;;;;2.03;1.80;;;36.20;37.20;;;;;;4991371;28;20507;-75
2022/06/21 12:17:20;;;;;;;1.70;1.60;;;35.00;38.00;;;;;;5006791;28;20046;-75
2022/06/21 12:19:52;;;;;;;1.80;1.70;;;35.10;38.80;;;;;;5007272;28;20060;-76
2022/06/21 12:22:30;;;;;;;2.00;1.90;;;35.70;38.30;;;;;;5005336;28;20409;-77
2022/06/21 12:25:19;;;;;;;2.00;1.90;;;35.20;38.00;;;;;;5021925;28;20050;-75
2022/06/21 12:27:58;;;;;;;1.75;1.65;;;35.50;38.50;;;;;;5008249;28;20156;-75
2022/06/21 12:30:33;;;;;;;2.67;1.98;;;36.20;37.10;;;;;;4991843;28;20050;-74
2022/06/21 12:33:06;;;;;;;2.00;1.90;;;36.00;36.60;;;;;;5006417;28;20056;-75
2022/06/21 12:35:45;;;;;;;2.50;2.30;;;34.90;37.00;;;;;;5003979;28;20050;-75
2022/06/21 12:38:22;;;;;;;5.07;2.40;;;32.70;39.70;;;;;;5002276;28;20050;-76
2022/06/21 12:41:05;;;;;;;2.38;2.28;;;30.50;42.50;;;;;;4986790;28;20054;-77
2022/06/21 12:43:52;;;;;;;2.92;2.50;;;29.20;45.30;;;;;;4987022;28;20101;-77
2022/06/21 12:46:30;;;;;;;3.53;3.28;;;30.30;45.30;;;;;;4987568;28;20065;-77
2022/06/21 12:49:31;;;;;;;3.47;2.45;;;32.20;43.10;;;;;;4994478;28;20092;-77
2022/06/21 12:52:07;;;;;;;3.10;2.42;;;33.80;40.90;;;;;;4979208;28;20087;-77
2022/06/21 12:54:55;;;;;;;2.65;2.55;;;34.90;39.70;;;;;;4989444;28;20057;-78
2022/06/21 12:58:04;;;;;;;3.13;2.30;;;35.40;37.70;;;;;;5004002;28;20058;-78
2022/06/21 13:00:47;;;;;;;2.55;2.38;;;35.50;38.40;;;;;;4998318;28;20053;-73
2022/06/21 13:03:45;;;;;;;4.97;2.30;;;35.90;37.90;;;;;;5005110;28;20077;-76
2022/06/21 13:06:52;;;;;;;2.75;2.55;;;36.30;36.90;;;;;;4965335;28;20566;-74
2022/06/21 13:09:45;;;;;;;2.78;2.55;;;36.70;36.40;;;;;;4983208;28;20057;-76
2022/06/21 13:12:39;;;;;;;6.40;3.80;;;36.60;36.70;;;;;;5005713;28;20427;-77
2022/06/21 13:15:31;;;;;;;2.40;2.30;;;35.40;37.60;;;;;;5008231;28;20153;-75
2022/06/21 13:18:19;;;;;;;3.17;2.42;;;35.20;38.90;;;;;;5011842;28;20088;-76
2022/06/21 13:21:00;;;;;;;3.17;2.03;;;35.70;38.30;;;;;;5005340;28;20104;-77
2022/06/21 13:23:35;;;;;;;3.70;2.20;;;36.20;37.80;;;;;;4991235;28;20057;-77
2022/06/21 13:26:14;;;;;;;3.10;2.90;;;36.50;37.60;;;;;;5002961;28;20073;-78
2022/06/21 13:29:05;;;;;;;2.80;2.70;;;36.80;37.20;;;;;;5006171;28;20057;-78
2022/06/21 13:31:43;;;;;;;2.10;2.00;;;37.20;36.60;;;;;;4990273;28;20056;-77
2022/06/21 13:34:29;;;;;;;2.05;1.95;;;37.20;35.10;;;;;;5004441;28;20591;-77
2022/06/21 13:37:00;;;;;;;2.10;1.90;;;37.20;35.40;;;;;;5007697;28;20073;-77
2022/06/21 13:39:38;;;;;;;2.17;2.03;;;37.30;35.80;;;;;;5025419;28;20056;-78
2022/06/21 13:45:01;;;;;;;3.13;2.83;;;37.00;36.00;;;;;;4989524;28;20054;-78
2022/06/21 13:47:38;;;;;;;2.33;2.00;;;35.80;36.40;;;;;;5006820;28;20057;-77
2022/06/21 13:50:16;;;;;;;3.80;2.30;;;35.50;36.90;;;;;;5007987;28;20057;-78
2022/06/21 13:52:52;;;;;;;2.83;2.17;;;35.20;36.70;;;;;;4998670;28;20060;-76
2022/06/21 13:55:25;;;;;;;2.58;1.92;;;35.00;36.50;;;;;;5007701;28;20520;-76